Latest Weather Observations for Cape Otway

IDV60801

Issued at 1:12 am EDT Friday 29 January 2021 (issued every 10 minutes, with the page automatically refreshed every 10 minutes)

About weather observations | Map of weather stations | Latest weather observations for VIC | Other Formats
Station Details ID: 090015 Name: CAPE OTWAY LIGHTHOUSE Lat: -38.86 Lon: 143.51 Height: 82.0 m
Data from the previous 72 hours. | See also: Recent months at Cape Otway
Date/Time
EDT
Temp
°C
App
Temp
°C
Dew
Point
°C
Rel
Hum
%
Delta-T
°C
Wind Press
QNH
hPa
Press
MSL
hPa
Rain since
9am
mm
Dir  Spd
km/h
Gust
km/h
Spd
kts
Gust
kts
29/01:00am 17.4 12.3 14.7 84 1.6 E 35 52 19 28 1013.3 1013.2 0.2
29/12:39am 17.3 12.5 14.6 84 1.6 E 33 52 18 28 1013.7 1013.6 0.2
29/12:30am 17.3 11.7 14.4 83 1.7 E 37 54 20 29 1014.0 1013.9 0.2
29/12:15am 17.4 12.5 14.3 82 1.8 E 33 56 18 30 1014.3 1014.2 0.2
29/12:00am 17.5 12.3 14.4 82 1.8 E 35 52 19 28 1014.4 1014.3 0.2
 
Date/Time
EDT
Temp
°C
App
Temp
°C
Dew
Point
°C
Rel
Hum
%
Delta-T
°C
Wind Press
QNH
hPa
Press
MSL
hPa
Rain since
9am
mm
Dir  Spd
km/h
Gust
km/h
Spd
kts
Gust
kts
28/11:50pm 17.4 12.6 14.5 83 1.7 E 33 52 18 28 1014.5 1014.4 0.2
28/11:30pm 17.4 12.6 14.5 83 1.7 E 33 50 18 27 1014.7 1014.6 0.2
28/11:11pm 17.5 12.3 14.6 83 1.7 E 35 56 19 30 1015.1 1014.9 0.2
28/11:00pm 17.5 12.0 14.6 83 1.7 E 37 48 20 26 1015.2 1015.0 0.2
28/10:49pm 17.5 12.0 14.6 83 1.7 E 37 56 20 30 1015.3 1015.1 0.2
28/10:30pm 17.4 11.6 14.9 85 1.5 E 39 54 21 29 1015.2 1015.0 0.2
28/10:00pm 17.7 11.8 14.6 82 1.8 E 39 57 21 31 1015.2 1015.0 0.0
28/09:58pm 17.7 12.2 14.6 82 1.8 E 37 56 20 30 1015.2 1015.0 0.0
28/09:30pm 17.8 11.5 14.5 81 1.9 E 41 57 22 31 1015.2 1015.0 0.0
28/09:00pm 17.7 11.7 14.4 81 1.9 E 39 59 21 32 1014.9 1014.8 0.0
28/08:30pm 17.8 12.6 14.5 81 1.9 E 35 54 19 29 1014.7 1014.6 0.0
28/08:11pm 17.9 13.1 14.6 81 1.9 E 33 56 18 30 1014.9 1014.8 0.0
28/08:00pm 17.9 12.7 14.6 81 1.9 E 35 48 19 26 1015.2 1015.0 0.0
28/07:30pm 18.0 13.2 14.5 80 2.0 E 33 52 18 28 1014.9 1014.8 0.0
28/07:00pm 18.2 13.4 14.7 80 2.0 E 33 52 18 28 1015.1 1014.9 0.0
28/06:34pm 18.2 12.6 14.5 79 2.1 E 37 61 20 33 1014.7 1014.6 0.0
28/06:30pm 18.2 12.2 14.5 79 2.1 E 39 56 21 30 1014.7 1014.6 0.0
28/06:00pm 18.1 10.4 14.4 79 2.1 E 48 69 26 37 1014.0 1013.9 0.0
28/05:30pm 18.3 11.5 14.2 77 2.4 E 43 61 23 33 1013.9 1013.8 0.0
28/05:00pm 18.2 11.8 14.3 78 2.2 E 41 63 22 34 1014.5 1014.4 0.0
28/04:30pm 18.1 12.5 14.4 79 2.1 E 37 63 20 34 1015.3 1015.1 0.0
28/04:00pm 18.2 13.0 14.5 79 2.1 E 35 54 19 29 1015.8 1015.6 0.0
28/03:30pm 19.0 13.0 14.5 75 2.6 E 39 63 21 34 1016.2 1016.0 0.0
28/03:06pm 18.2 13.0 14.5 79 2.1 E 35 54 19 29 1016.9 1016.7 0.0
28/03:00pm 18.2 13.0 14.5 79 2.1 E 35 50 19 27 1017.1 1016.9 0.0
28/02:33pm 18.1 12.4 14.2 78 2.2 E 37 59 20 32 1016.6 1016.4 0.0
28/02:30pm 18.1 12.5 14.4 79 2.1 E 37 54 20 29 1016.7 1016.5 0.0
28/02:00pm 18.2 11.3 14.1 77 2.4 E 43 61 23 33 1016.5 1016.3 0.0
28/01:30pm 18.0 10.6 14.1 78 2.2 E 46 70 25 38 1017.1 1016.9 0.0
28/01:00pm 17.9 11.5 14.2 79 2.1 E 41 59 22 32 1017.4 1017.2 0.0
28/12:33pm 17.9 11.5 14.2 79 2.1 E 41 61 22 33 1017.6 1017.4 0.0
28/12:30pm 17.9 11.5 14.4 80 2.0 E 41 57 22 31 1017.7 1017.5 0.0
28/12:00pm 17.7 10.6 14.0 79 2.1 E 44 72 24 39 1018.0 1017.8 0.0
28/11:30am 17.5 10.6 14.0 80 2.0 E 43 65 23 35 1018.1 1017.9 0.0
28/11:00am 17.2 11.0 13.7 80 2.0 E 39 61 21 33 1018.5 1018.3 0.0
28/10:30am 17.0 10.3 13.3 79 2.1 E 41 61 22 33 1018.3 1018.1 0.0
28/10:13am 17.1 10.8 13.4 79 2.1 E 39 57 21 31 1018.5 1018.3 0.0
28/10:00am 17.1 10.4 13.4 79 2.1 E 41 57 22 31 1018.5 1018.3 0.0
28/09:30am 17.1 9.9 13.2 78 2.2 E 43 69 23 37 1018.7 1018.5 0.0
28/09:00am 17.1 9.9 13.0 77 2.3 E 43 63 23 34 1018.7 1018.5 0.0
28/08:30am 17.0 10.1 12.9 77 2.3 E 41 63 22 34 1018.6 1018.4 0.0
28/08:00am 17.0 10.6 13.3 79 2.1 E 39 61 21 33 1018.4 1018.2 0.0
28/07:30am 16.9 9.6 12.8 77 2.3 E 43 70 23 38 1017.9 1017.7 0.0
28/07:00am 16.9 8.3 12.8 77 2.3 E 50 74 27 40 1017.5 1017.3 0.0
28/06:30am 16.8 9.9 12.9 78 2.2 E 41 65 22 35 1017.2 1017.0 0.0
28/06:00am 16.8 8.7 12.1 74 2.6 E 46 72 25 39 1016.7 1016.5 0.0
28/05:30am 16.8 9.4 12.3 75 2.5 E 43 69 23 37 1016.7 1016.5 0.0
28/05:00am 16.8 8.8 12.3 75 2.5 E 46 74 25 40 1016.7 1016.5 0.0
28/04:30am 16.8 8.8 12.5 76 2.4 E 46 72 25 39 1016.2 1016.0 0.0
28/04:00am 16.7 8.8 12.7 77 2.2 E 46 72 25 39 1016.1 1015.9 0.0
28/03:30am 16.7 8.8 12.7 77 2.2 E 46 76 25 41 1015.3 1015.1 0.0
28/03:00am 16.7 8.8 12.7 77 2.2 E 46 69 25 37 1015.4 1015.2 0.0
28/02:30am 16.8 8.8 12.5 76 2.4 E 46 70 25 38 1015.6 1015.4 0.0
28/02:00am 16.8 8.5 12.5 76 2.4 E 48 76 26 41 1015.7 1015.5 0.0
28/01:30am 16.7 9.5 13.0 79 2.1 E 43 72 23 39 1015.9 1015.7 0.0
28/01:00am 16.7 9.9 13.2 80 2.0 E 41 61 22 33 1016.2 1016.0 0.0
28/12:30am 16.7 9.5 13.0 79 2.1 E 43 72 23 39 1016.5 1016.3 0.0
28/12:00am 16.8 9.4 13.1 79 2.1 E 44 67 24 36 1016.5 1016.3 0.0
 
Date/Time
EDT
Temp
°C
App
Temp
°C
Dew
Point
°C
Rel
Hum
%
Delta-T
°C
Wind Press
QNH
hPa
Press
MSL
hPa
Rain since
9am
mm
Dir  Spd
km/h
Gust
km/h
Spd
kts
Gust
kts
27/11:30pm 16.7 9.6 13.4 81 1.9 E 43 67 23 36 1016.6 1016.4 0.0
27/11:00pm 16.7 9.9 13.2 80 2.0 E 41 69 22 37 1016.6 1016.4 0.0
27/10:30pm 16.8 10.0 13.1 79 2.1 E 41 69 22 37 1016.9 1016.7 0.0
27/10:00pm 16.8 10.4 13.1 79 2.1 E 39 67 21 36 1017.0 1016.8 0.0
27/09:30pm 16.9 11.0 13.6 81 1.9 E 37 59 20 32 1017.4 1017.2 0.0
27/09:00pm 16.9 11.0 13.6 81 1.9 E 37 63 20 34 1017.1 1016.9 0.0
27/08:30pm 16.8 10.9 13.5 81 1.9 E 37 61 20 33 1016.3 1016.1 0.0
27/08:00pm 17.0 10.0 13.7 81 1.9 E 43 70 23 38 1016.1 1015.9 0.0
27/07:30pm 17.1 10.4 13.4 79 2.1 E 41 69 22 37 1016.5 1016.3 0.0
27/07:00pm 17.2 11.0 13.7 80 2.0 E 39 61 21 33 1016.4 1016.2 0.0
27/06:30pm 17.6 11.1 13.9 79 2.1 E 41 61 22 33 1016.1 1015.9 0.0
27/06:04pm 17.6 12.2 13.9 79 2.1 E 35 54 19 29 1016.4 1016.2 0.0
27/06:00pm 17.8 12.1 14.1 79 2.1 E 37 54 20 29 1016.4 1016.2 0.0
27/05:46pm 17.5 11.9 14.4 82 1.8 ESE 37 56 20 30 1016.3 1016.1 0.0
27/05:30pm 17.2 11.4 13.9 81 1.9 ESE 37 50 20 27 1016.7 1016.5 0.0
27/05:00pm 16.9 10.6 12.4 75 2.5 ESE 37 48 20 26 1016.8 1016.6 0.0
27/04:30pm 17.3 12.1 11.6 69 3.1 ESE 30 43 16 23 1017.3 1017.1 0.0
27/04:00pm 17.0 11.5 10.6 66 3.4 E 30 48 16 26 1017.5 1017.3 0.0
27/03:59pm 17.1 11.7 10.9 67 3.3 E 30 48 16 26 1017.5 1017.3 0.0
27/03:30pm 16.6 10.6 10.0 65 3.5 E 32 46 17 25 1017.3 1017.1 0.0
27/03:00pm 16.8 10.9 10.4 66 3.4 ESE 32 43 17 23 1017.8 1017.6 0.0
27/02:30pm 16.3 10.1 9.3 63 3.6 ESE 32 41 17 22 1017.8 1017.6 0.0
27/02:00pm 16.0 10.2 9.4 65 3.4 ESE 30 39 16 21 1017.9 1017.7 0.0
27/01:30pm 16.2 10.9 8.4 60 4.0 SE 26 37 14 20 1018.3 1018.1 0.0
27/01:00pm 16.3 11.5 7.3 55 4.5 SE 22 37 12 20 1018.3 1018.1 0.0
27/12:30pm 16.4 12.2 7.6 56 4.4 SE 19 33 10 18 1018.6 1018.4 0.0
27/12:00pm 16.0 10.9 7.5 57 4.2 SE 24 37 13 20 1018.6 1018.4 0.0
27/11:30am 15.2 8.5 7.3 59 3.9 ESE 32 41 17 22 1018.4 1018.2 0.0
27/11:00am 15.2 10.0 7.3 59 3.9 SE 24 43 13 23 1018.3 1018.1 0.0
27/10:30am 15.1 11.4 7.9 62 3.6 S 17 30 9 16 1018.1 1017.9 0.0
27/10:00am 14.9 10.6 7.7 62 3.6 SSE 20 30 11 16 1017.9 1017.7 0.0
27/09:30am 14.3 9.7 6.6 60 3.7 SSE 20 35 11 19 1017.6 1017.4 0.0
27/09:00am 14.1 9.0 6.2 59 3.8 SE 22 39 12 21 1017.8 1017.6 0.2
27/08:30am 13.9 9.9 6.5 61 3.6 SSW 17 35 9 19 1017.5 1017.3 0.2
27/08:00am 13.5 9.7 5.7 59 3.7 S 15 28 8 15 1017.1 1016.9 0.2
27/07:30am 13.7 9.9 5.8 59 3.8 S 15 28 8 15 1016.9 1016.7 0.2
27/07:00am 13.5 9.3 5.9 60 3.6 S 17 30 9 16 1016.5 1016.3 0.2
27/06:30am 13.8 9.7 6.4 61 3.6 SE 17 32 9 17 1016.2 1016.0 0.2
27/06:00am 14.0 9.6 7.3 64 3.3 SE 20 35 11 19 1015.4 1015.2 0.2
27/05:30am 13.6 10.2 6.0 60 3.6 SSW 13 33 7 18 1015.2 1015.0 0.2
27/05:00am 13.8 10.2 6.9 63 3.4 SSE 15 28 8 15 1014.8 1014.7 0.2
27/04:30am 13.5 10.1 5.7 59 3.7 WSW 13 22 7 12 1014.7 1014.6 0.2
27/04:00am 13.6 9.9 6.2 61 3.5 SSE 15 30 8 16 1014.4 1014.3 0.2
27/03:30am 13.6 8.9 5.3 57 3.9 SE 19 35 10 19 1014.6 1014.5 0.2
27/03:00am 13.5 9.9 5.2 57 3.9 WSW 13 20 7 11 1014.8 1014.7 0.2
27/02:30am 13.8 10.1 6.2 60 3.6 SW 15 28 8 15 1014.4 1014.3 0.2
27/02:00am 13.7 10.7 6.1 60 3.6 WSW 11 20 6 11 1014.2 1014.1 0.2
27/01:30am 13.3 9.3 4.7 56 4.0 SW 15 35 8 19 1014.3 1014.2 0.2
27/01:00am 13.5 9.6 5.2 57 3.9 WSW 15 22 8 12 1014.2 1014.1 0.2
27/12:30am 13.5 10.8 5.7 59 3.7 WSW 9 17 5 9 1014.5 1014.4 0.2
27/12:00am 13.5 9.6 5.4 58 3.8 SW 15 28 8 15 1014.0 1013.9 0.2
 
Date/Time
EDT
Temp
°C
App
Temp
°C
Dew
Point
°C
Rel
Hum
%
Delta-T
°C
Wind Press
QNH
hPa
Press
MSL
hPa
Rain since
9am
mm
Dir  Spd
km/h
Gust
km/h
Spd
kts
Gust
kts
26/11:30pm 13.7 9.7 6.6 62 3.4 SW 17 26 9 14 1013.8 1013.7 0.2
26/11:00pm 13.8 11.0 6.9 63 3.4 WSW 11 20 6 11 1014.0 1013.9 0.2
26/10:30pm 13.4 10.4 5.8 60 3.6 SW 11 20 6 11 1013.8 1013.7 0.2
26/10:00pm 13.2 9.4 4.1 54 4.2 WSW 13 20 7 11 1013.3 1013.2 0.2
26/09:30pm 13.5 9.3 5.9 60 3.6 SW 17 24 9 13 1012.9 1012.8 0.2
26/09:00pm 13.8 9.3 6.2 60 3.6 SW 19 24 10 13 1012.3 1012.2 0.2
26/08:30pm 14.2 10.4 7.5 64 3.3 SW 17 28 9 15 1011.8 1011.7 0.2
26/08:00pm 14.3 10.1 7.6 64 3.3 SW 19 28 10 15 1011.2 1011.0 0.2
26/07:30pm 14.8 10.5 7.1 60 3.8 SW 19 30 10 16 1010.7 1010.5 0.2
26/07:00pm 14.9 10.4 7.0 59 3.9 SW 20 28 11 15 1010.1 1009.9 0.2
26/06:30pm 15.6 11.1 8.4 62 3.7 SW 22 30 12 16 1009.5 1009.3 0.2
26/06:00pm 15.5 11.5 9.2 66 3.3 SW 20 30 11 16 1009.0 1008.8 0.2
26/05:30pm 15.4 11.0 9.1 66 3.2 SSW 22 32 12 17 1009.0 1008.8 0.2
26/05:00pm 15.9 11.4 10.0 68 3.1 SSW 24 35 13 19 1008.6 1008.4 0.2
26/04:30pm 15.6 11.7 10.8 73 2.6 SW 22 32 12 17 1008.2 1008.0 0.2
26/04:00pm 15.1 11.8 11.5 79 1.9 SW 20 30 11 16 1008.1 1007.9 0.2
26/03:30pm 16.2 12.2 11.8 75 2.4 SSW 24 39 13 21 1007.7 1007.5 0.2
26/03:00pm 16.7 13.3 12.5 76 2.3 SSW 22 32 12 17 1007.4 1007.2 0.2
26/02:30pm 17.1 12.8 12.0 72 2.8 SSW 26 35 14 19 1007.2 1007.0 0.2
26/02:00pm 17.9 12.6 12.6 71 3.0 SW 32 41 17 22 1006.8 1006.6 0.2
26/01:30pm 17.6 13.3 11.9 69 3.1 SSW 26 37 14 20 1006.6 1006.4 0.2
26/01:00pm 17.3 10.8 11.8 70 3.0 SW 37 50 20 27 1006.2 1006.0 0.2
26/12:30pm 17.7 13.6 12.6 72 2.8 SW 26 32 14 17 1005.9 1005.7 0.2
26/12:00pm 17.3 12.9 13.0 76 2.4 SW 28 33 15 18 1005.9 1005.7 0.0
26/11:30am 16.9 13.7 13.2 79 2.1 SW 22 28 12 15 1005.6 1005.4 0.0
26/11:00am 16.1 12.4 12.7 80 1.9 SSW 24 37 13 20 1005.1 1004.9 0.0
26/10:30am 16.0 12.6 12.4 79 2.0 SSW 22 32 12 17 1004.9 1004.7 0.0
26/10:00am 15.9 12.1 13.6 86 1.3 SW 26 35 14 19 1004.5 1004.3 0.0
26/09:30am 16.0 13.4 13.7 86 1.3 SW 20 28 11 15 1004.2 1004.0 0.0
26/09:00am 16.0 13.2 14.2 89 1.0 SW 22 30 12 16 1004.0 1003.8 24.8
26/08:30am 15.3 14.4 13.8 91 0.8 SW 11 17 6 9 1003.5 1003.3 24.8
26/08:00am 15.5 11.6 13.3 87 1.2 SSW 26 35 14 19 1002.9 1002.7 24.8
26/07:30am 15.7 11.7 14.1 90 0.9 SSW 28 39 15 21 1002.1 1002.0 24.8
26/07:00am 15.7 12.7 14.7 94 0.6 SSW 24 35 13 19 1001.6 1001.5 24.8
26/06:30am 15.6 12.3 15.1 97 0.3 SW 26 35 14 19 1001.2 1001.1 24.8
26/06:00am 15.6 12.8 15.3 98 0.2 SSW 24 32 13 17 1000.7 1000.5 24.8
26/05:30am 15.9 13.6 15.6 98 0.2 SSW 22 32 12 17 1000.1 999.9 24.8
26/05:00am 15.8 13.1 15.5 98 0.2 SSW 24 32 13 17 999.8 999.6 24.6
26/04:30am 16.3 14.1 16.0 98 0.2 SSW 22 41 12 22 999.5 999.3 24.4
26/04:00am 16.5 14.8 16.2 98 0.2 SSW 20 26 11 14 999.3 999.1 24.4
26/03:30am 16.5 15.0 16.2 98 0.2 SSW 19 24 10 13 999.5 999.3 24.0
26/03:00am 16.5 16.1 16.2 98 0.2 SSW 13 19 7 10 999.5 999.3 23.4
26/02:30am 16.6 17.0 16.3 98 0.2 SSW 9 13 5 7 999.6 999.4 22.8
26/02:00am 16.6 16.2 16.1 97 0.3 SSW 13 17 7 9 999.9 999.7 22.2
26/01:30am 16.7 16.6 16.1 96 0.4 SSW 11 17 6 9 1000.1 999.9 20.8

Other formats

Comma delimited format used in spreadsheet applications
http://www.bom.gov.au/fwo/IDV60801/IDV60801.94842.axf

JavaScript Object Notation format (JSON) in row-major order
http://www.bom.gov.au/fwo/IDV60801/IDV60801.94842.json

Data quality

Most of these data are generated automatically and are frequently updated. Quality checks on data are not normally performed. It is possible for incorrect values to appear. Refer to information at About Latest Weather Observations and please check the disclaimer before using these data.